Главная страница
METAR-TAF:

METAR-TAF

Аэропорты :

Франклин округ, Вермонт, США

широта: 44-56-25N, долгота: 073-05-51W, высота над уровнем моря: 69 м

Текущие метеонаблюдения

Эта сводка был подготовлена 27 минут назад, в 19:36 UTC
Ветер 9 Узел от северно-северо-западный с порывами до 14 Узел, изменяющийся между северо-западный и северо-северо-восточный
Температура 8°C
Влажность 100%
Давление 987 hPa
Видимость: 4.8 км
Рассеянная облачность на высоте 900 фута
Сплошная облачность на высоте 1300 фута
небольшой дождь

METAR: KFSO 171936Z AUTO 34009G14KT 310V020 3SM -RA BKN009 OVC013 08/08 A2915 RMK AO2 T00820075

Время: 16:03 (20:03 UTC)


TAF: отсутствует

Метеонаблюдения и прогнозы для более 4000 аэропортов (сводки METAR и TAF).

Имеющиеся станции представлены на карте желтыми и красными точками.

Чтобы увидеть название станции, наведите на нее мышь.

Затем щелкните, чтобы увидеть метеонаблюдения и метеопрогнозы.

Управление картой: чтобы увеличить масштаб, щелкните зеленые кнопки с черным крестиком; чтобы уменьшить масштаб, щелкните зеленую кнопку с тире; для просмотра соседних карт щелкайте зеленые стрелки.


METAR-TAF: